Time;durP1;ratioP1;P1;durP2;ratioP2;P2;SDS_P1;SDS_P2;PMS_P1;PMS_P2;Temp;Humidity;BMP_temperature;BMP_pressure;BME280_temperature;BME280_humidity;BME280_pressure;Samples;Min_cycle;Max_cycle;Signal;HPM_P1;HPM_P2
2022/11/24 00:00:31;;;;;;;13.05;8.80;;;;;;;6.97;88.32;100539.25;5112621;28;20070;-71
2022/11/24 00:02:56;;;;;;;12.20;8.27;;;;;;;6.96;88.53;100537.59;5091094;28;20028;-72
2022/11/24 00:05:22;;;;;;;12.15;7.93;;;;;;;6.91;89.45;100548.81;5070491;28;20107;-71
2022/11/24 00:07:48;;;;;;;12.40;8.15;;;;;;;6.61;90.77;100547.09;5097194;28;20058;-72
2022/11/24 00:10:15;;;;;;;12.63;8.73;;;;;;;6.44;90.60;100493.75;5068482;28;20051;-71
2022/11/24 00:12:40;;;;;;;13.25;8.15;;;;;;;6.82;90.26;100540.06;5111258;28;20081;-72
2022/11/24 00:15:06;;;;;;;13.68;8.18;;;;;;;6.77;90.38;100536.25;5075429;28;20055;-72
2022/11/24 00:17:31;;;;;;;10.98;8.63;;;;;;;6.94;89.97;100542.28;5086181;28;20031;-72
2022/11/24 00:19:57;;;;;;;12.32;8.40;;;;;;;6.87;89.88;100546.72;5097401;28;20036;-72
2022/11/24 00:22:22;;;;;;;12.38;8.02;;;;;;;6.70;90.88;100546.03;5052467;28;20035;-73
2022/11/24 00:24:47;;;;;;;13.23;8.27;;;;;;;6.82;89.82;100536.53;5092016;28;20161;-72
2022/11/24 00:27:13;;;;;;;11.30;7.45;;;;;;;6.70;90.34;100540.69;5092799;28;20050;-71
2022/11/24 00:29:38;;;;;;;13.18;8.55;;;;;;;6.89;89.50;100539.31;5085323;28;20478;-71
2022/11/24 00:32:05;;;;;;;12.80;9.05;;;;;;;7.11;89.16;100551.00;5080655;28;20040;-72
2022/11/24 00:34:31;;;;;;;14.20;8.45;;;;;;;7.09;88.68;100558.38;5087003;28;20034;-71
2022/11/24 00:36:56;;;;;;;15.00;8.75;;;;;;;7.19;88.26;100562.44;5108653;28;20055;-72
2022/11/24 00:39:21;;;;;;;10.75;7.90;;;;;;;7.06;88.58;100554.22;5077116;28;20039;-72
2022/11/24 00:41:47;;;;;;;13.77;8.50;;;;;;;7.10;88.55;100560.03;5067618;28;20130;-72
2022/11/24 00:44:14;;;;;;;12.07;8.35;;;;;;;7.23;87.56;100541.50;5096028;28;20395;-73
2022/11/24 00:46:40;;;;;;;13.18;8.30;;;;;;;7.16;88.84;100562.00;5088497;28;20031;-71
2022/11/24 00:49:06;;;;;;;11.77;7.97;;;;;;;7.34;87.47;100561.63;5088416;28;20035;-71
2022/11/24 00:51:31;;;;;;;12.55;8.00;;;;;;;7.29;87.96;100563.00;5077660;28;20031;-71
2022/11/24 00:53:57;;;;;;;13.10;8.88;;;;;;;7.23;87.90;100558.38;5102116;28;20082;-71
2022/11/24 00:56:24;;;;;;;12.70;8.63;;;;;;;7.16;88.09;100562.00;5094755;28;20510;-72
2022/11/24 00:58:50;;;;;;;12.13;8.35;;;;;;;7.06;88.82;100549.69;5105185;28;20027;-72
2022/11/24 01:01:21;;;;;;;13.80;8.63;;;;;;;7.18;88.78;100565.28;5085729;28;20062;-72
2022/11/24 01:03:47;;;;;;;10.93;7.47;;;;;;;7.09;88.81;100563.75;5094672;28;20107;-72
2022/11/24 01:06:19;;;;;;;12.88;8.57;;;;;;;7.11;89.51;100556.34;5079477;28;20518;-71
2022/11/24 01:08:44;;;;;;;12.98;8.70;;;;;;;7.16;89.25;100552.13;5090082;28;20119;-72
2022/11/24 01:11:15;;;;;;;12.45;7.90;;;;;;;7.04;89.62;100553.56;5107903;28;20054;-72
2022/11/24 01:13:41;;;;;;;14.55;8.48;;;;;;;6.90;89.23;100525.78;5102088;28;20051;-73
2022/11/24 01:16:33;;;;;;;11.27;7.78;;;;;;;6.97;90.07;100553.47;5096331;28;20390;-72
2022/11/24 01:18:59;;;;;;;13.20;8.35;;;;;;;7.13;89.40;100554.31;5089965;28;20215;-72
2022/11/24 01:21:25;;;;;;;12.18;7.82;;;;;;;6.78;89.31;100524.53;5069396;28;20043;-71
2022/11/24 01:23:50;;;;;;;13.43;8.50;;;;;;;6.96;89.96;100559.00;5115094;28;20153;-72
2022/11/24 01:26:37;;;;;;;13.23;8.77;;;;;;;6.92;90.30;100558.53;5069772;28;20042;-72
2022/11/24 01:29:03;;;;;;;12.90;8.10;;;;;;;6.89;89.54;100550.88;5068379;28;20508;-72
2022/11/24 01:31:28;;;;;;;12.32;7.03;;;;;;;6.79;89.63;100561.00;5073356;28;20119;-72
2022/11/24 01:33:54;;;;;;;12.23;8.10;;;;;;;6.56;92.40;100567.19;5062414;28;20049;-72
2022/11/24 01:36:20;;;;;;;12.20;7.95;;;;;;;6.78;90.95;100567.34;5074594;28;20067;-71
2022/11/24 01:38:45;;;;;;;11.60;7.57;;;;;;;6.48;91.86;100539.69;5067350;28;20501;-72
2022/11/24 01:41:16;;;;;;;11.45;6.80;;;;;;;6.52;92.90;100549.84;5050708;28;20072;-72
2022/11/24 01:43:43;;;;;;;11.52;7.53;;;;;;;6.52;92.79;100552.53;5057752;28;20128;-72
2022/11/24 01:46:37;;;;;;;13.05;8.50;;;;;;;6.62;92.00;100548.75;5045470;28;20021;-71
2022/11/24 01:49:35;;;;;;;12.10;8.48;;;;;;;6.48;92.34;100556.53;5068044;28;20045;-72
2022/11/24 01:52:10;;;;;;;11.48;7.78;;;;;;;6.32;92.29;100513.91;5075301;28;20036;-72
2022/11/24 01:54:45;;;;;;;12.65;8.48;;;;;;;6.67;92.19;100559.75;5065277;28;20047;-72
2022/11/24 01:57:20;;;;;;;;;;;;;;;6.69;91.69;100561.25;5068209;28;20063;-71
2022/11/24 01:59:50;;;;;;;11.75;7.82;;;;;;;6.75;90.88;100570.38;5074673;28;19922;-71
2022/11/24 02:02:16;;;;;;;12.63;7.75;;;;;;;6.46;93.15;100571.94;5089441;28;20027;-72
2022/11/24 02:04:44;;;;;;;12.57;8.25;;;;;;;6.26;91.10;100502.09;5095041;28;20043;-71
2022/11/24 02:07:11;;;;;;;14.00;8.57;;;;;;;6.58;92.48;100561.66;5112365;28;20110;-71
2022/11/24 02:09:48;;;;;;;14.52;8.88;;;;;;;6.45;91.64;100542.69;5105958;28;20422;-71
2022/11/24 02:12:13;;;;;;;14.38;8.57;;;;;;;6.48;92.62;100561.06;5088127;28;20031;-72
2022/11/24 02:14:41;;;;;;;13.40;8.82;;;;;;;6.57;92.69;100571.50;5113793;28;20028;-72
2022/11/24 02:17:07;;;;;;;11.65;8.20;;;;;;;6.59;92.09;100563.34;5093426;28;20180;-71
2022/11/24 02:19:38;;;;;;;12.20;8.52;;;;;;;6.48;92.81;100574.41;5088254;28;20506;-72
2022/11/24 02:22:10;;;;;;;12.73;8.57;;;;;;;6.45;93.37;100577.44;5099750;28;20104;-72
2022/11/24 02:24:58;;;;;;;12.90;8.85;;;;;;;6.39;92.55;100546.09;5107322;28;20439;-72
2022/11/24 02:27:23;;;;;;;15.80;8.70;;;;;;;6.62;91.78;100570.13;5089180;28;20095;-72
2022/11/24 02:29:49;;;;;;;12.90;8.80;;;;;;;6.53;92.20;100561.38;5099066;28;20055;-72
2022/11/24 02:32:15;;;;;;;16.00;9.70;;;;;;;6.56;92.74;100569.88;5104244;28;20035;-72
2022/11/24 02:34:40;;;;;;;13.30;8.95;;;;;;;6.65;91.77;100564.44;5113579;28;20042;-73
2022/11/24 02:37:25;;;;;;;13.50;9.23;;;;;;;6.73;91.15;100561.72;5075370;28;20051;-72
2022/11/24 02:39:51;;;;;;;15.50;8.70;;;;;;;6.42;93.23;100562.59;5027503;28;20794;-72
2022/11/24 02:42:16;;;;;;;13.23;8.90;;;;;;;6.73;91.46;100561.72;5023890;28;20049;-72
2022/11/24 02:44:47;;;;;;;15.23;9.60;;;;;;;6.79;90.96;100566.34;5064860;28;20043;-71
2022/11/24 02:47:13;;;;;;;11.30;7.75;;;;;;;6.33;93.68;100555.66;5049168;28;20429;-72
2022/11/24 02:49:39;;;;;;;14.85;9.10;;;;;;;6.37;94.00;100556.97;5039691;28;20052;-71
2022/11/24 02:52:05;;;;;;;13.48;8.93;;;;;;;6.62;92.99;100554.09;5060959;28;20640;-71
2022/11/24 02:54:30;;;;;;;13.80;8.30;;;;;;;6.38;94.12;100558.63;5054705;28;20103;-72
2022/11/24 02:56:56;;;;;;;13.68;8.95;;;;;;;6.12;94.48;100510.88;5066793;28;20511;-71
2022/11/24 02:59:22;;;;;;;15.43;9.77;;;;;;;6.44;94.68;100552.56;5047437;28;20045;-71
2022/11/24 03:01:47;;;;;;;15.88;9.05;;;;;;;6.54;94.23;100555.81;5057367;28;20403;-73
2022/11/24 03:04:13;;;;;;;15.32;9.70;;;;;;;6.89;92.21;100558.91;5043584;28;20058;-72
2022/11/24 03:06:38;;;;;;;16.80;9.55;;;;;;;6.20;93.43;100475.28;5053852;28;20056;-71
2022/11/24 03:09:05;;;;;;;16.70;10.05;;;;;;;6.73;92.77;100549.16;5067460;28;20032;-71
2022/11/24 03:11:30;;;;;;;13.57;9.10;;;;;;;6.67;92.94;100555.22;5096274;28;20123;-72
2022/11/24 03:13:56;;;;;;;14.88;9.57;;;;;;;6.81;92.33;100558.94;5098607;28;20077;-72
2022/11/24 03:16:21;;;;;;;18.17;10.27;;;;;;;6.47;94.09;100549.53;5085454;28;20042;-72
2022/11/24 03:18:47;;;;;;;15.40;9.68;;;;;;;6.78;92.64;100552.13;5111554;28;20028;-72
2022/11/24 03:21:12;;;;;;;18.40;9.48;;;;;;;6.77;92.82;100553.13;5093063;28;20032;-72
2022/11/24 03:23:38;;;;;;;11.43;7.50;;;;;;;6.44;94.44;100543.72;5105166;28;20030;-71
2022/11/24 03:26:11;;;;;;;15.27;9.77;;;;;;;6.41;93.28;100480.75;5116184;28;20023;-72
2022/11/24 03:28:37;;;;;;;13.45;8.93;;;;;;;6.75;92.67;100559.66;5087732;28;20024;-72
2022/11/24 03:31:02;;;;;;;15.05;9.77;;;;;;;6.83;91.97;100531.03;5074572;28;21156;-72
2022/11/24 03:33:28;;;;;;;16.92;9.98;;;;;;;7.09;91.34;100561.06;5095163;28;20509;-72
2022/11/24 03:35:54;;;;;;;17.27;10.15;;;;;;;6.94;91.31;100559.16;5102781;28;20032;-72
2022/11/24 03:38:19;;;;;;;16.50;9.88;;;;;;;6.88;92.37;100570.59;5097195;28;20052;-72
2022/11/24 03:40:44;;;;;;;16.05;10.70;;;;;;;6.96;90.84;100546.47;5099361;28;20024;-72
2022/11/24 03:43:10;;;;;;;15.25;10.10;;;;;;;7.19;90.70;100580.34;5091960;28;20494;-72
2022/11/24 03:45:35;;;;;;;17.27;11.05;;;;;;;7.17;90.73;100580.53;5086412;28;20032;-72
2022/11/24 03:48:01;;;;;;;17.42;11.13;;;;;;;7.09;90.26;100558.38;5097278;28;20454;-72
2022/11/24 03:50:26;;;;;;;19.63;11.75;;;;;;;7.07;91.40;100575.44;5086183;28;20024;-72
2022/11/24 03:52:52;;;;;;;17.50;11.25;;;;;;;7.17;90.32;100566.31;5092533;28;20028;-72
2022/11/24 03:55:17;;;;;;;18.65;11.93;;;;;;;7.09;91.60;100577.13;5092697;28;20042;-72
2022/11/24 03:57:43;;;;;;;17.38;11.25;;;;;;;6.91;91.38;100548.81;5085322;28;20031;-72
2022/11/24 04:00:09;;;;;;;19.83;11.35;;;;;;;6.57;90.72;100467.25;5080186;28;20459;-72
2022/11/24 04:02:34;;;;;;;19.77;11.68;;;;;;;7.24;89.82;100569.91;5086800;28;20058;-72
2022/11/24 04:05:00;;;;;;;18.45;11.20;;;;;;;7.33;89.99;100571.50;5091297;28;20402;-72
2022/11/24 04:07:25;;;;;;;16.83;10.73;;;;;;;7.05;90.29;100540.03;5093833;28;20509;-72
2022/11/24 04:09:50;;;;;;;19.05;11.68;;;;;;;7.20;90.99;100569.47;5067090;28;20082;-72
2022/11/24 04:15:00;;;;;;;17.40;10.93;;;;;;;7.25;90.60;100577.78;5085946;28;20081;-72
2022/11/24 04:17:27;;;;;;;18.40;11.73;;;;;;;7.15;91.05;100565.66;5081328;28;20043;-72
2022/11/24 04:19:52;;;;;;;18.90;11.70;;;;;;;7.39;89.92;100580.66;5099103;28;20032;-72
2022/11/24 04:22:17;;;;;;;18.42;11.40;;;;;;;7.19;90.97;100573.16;5084633;28;20106;-72
2022/11/24 04:24:43;;;;;;;16.20;10.57;;;;;;;7.35;89.99;100582.88;5073175;28;20046;-72
2022/11/24 04:27:08;;;;;;;19.88;11.30;;;;;;;7.12;90.63;100564.19;5091647;28;20084;-72
2022/11/24 04:29:34;;;;;;;18.15;11.68;;;;;;;7.38;90.22;100587.81;5104563;28;20028;-72
2022/11/24 04:31:59;;;;;;;18.50;11.13;;;;;;;7.29;90.05;100578.25;5097842;28;20088;-72
2022/11/24 04:34:24;;;;;;;16.25;10.13;;;;;;;7.24;90.35;100577.94;5103498;28;20149;-72
2022/11/24 04:36:50;;;;;;;19.55;11.23;;;;;;;7.20;91.03;100579.34;5091325;28;20054;-72
2022/11/24 04:39:15;;;;;;;18.58;11.38;;;;;;;7.23;90.49;100576.28;5082580;28;20410;-72
2022/11/24 04:41:40;;;;;;;19.33;11.85;;;;;;;7.30;90.38;100578.03;5095649;28;20045;-72
2022/11/24 04:44:06;;;;;;;17.85;11.63;;;;;;;7.23;90.92;100590.50;5066905;28;20115;-72
2022/11/24 04:46:31;;;;;;;18.70;10.68;;;;;;;6.80;92.00;100568.81;5094986;28;20039;-72
2022/11/24 04:48:57;;;;;;;19.83;11.52;;;;;;;7.12;92.13;100582.06;5089023;28;20028;-72
2022/11/24 04:51:22;;;;;;;18.30;11.07;;;;;;;7.03;91.91;100582.16;5067524;28;20051;-72
2022/11/24 04:53:48;;;;;;;19.02;11.40;;;;;;;7.05;92.15;100585.50;5110659;28;20043;-72
2022/11/24 04:56:13;;;;;;;19.90;11.95;;;;;;;7.10;92.03;100590.28;5102007;28;20051;-72
2022/11/24 04:58:39;;;;;;;17.98;11.20;;;;;;;7.07;91.58;100572.75;5076777;28;20058;-72
2022/11/24 05:01:08;;;;;;;20.95;11.82;;;;;;;7.17;91.40;100596.56;5083460;28;20040;-72
2022/11/24 05:03:35;;;;;;;19.83;12.32;;;;;;;7.27;90.84;100602.50;5116201;28;20378;-72
2022/11/24 05:06:00;;;;;;;21.75;12.98;;;;;;;7.14;90.55;100580.88;5105411;28;20468;-73
2022/11/24 05:08:26;;;;;;;18.67;12.20;;;;;;;7.56;89.49;100610.75;5081556;28;20027;-73
2022/11/24 05:10:51;;;;;;;18.67;12.10;;;;;;;7.15;91.16;100613.81;5103672;28;20028;-73
2022/11/24 05:13:17;;;;;;;17.98;12.18;;;;;;;7.37;89.80;100618.28;5103607;28;20039;-73
2022/11/24 05:15:42;;;;;;;19.40;12.02;;;;;;;7.16;90.70;100618.19;5085177;28;20020;-75
2022/11/24 05:18:12;;;;;;;19.27;12.05;;;;;;;7.19;90.60;100607.13;5105006;28;20030;-74
2022/11/24 05:20:38;;;;;;;18.13;11.10;;;;;;;7.40;90.12;100627.81;5101641;28;20028;-74
2022/11/24 05:23:23;;;;;;;18.63;11.52;;;;;;;7.57;89.40;100628.47;5111835;28;20043;-72
2022/11/24 05:25:49;;;;;;;20.05;12.40;;;;;;;7.50;89.16;100637.22;5028610;28;20041;-73
2022/11/24 05:28:16;;;;;;;23.30;12.73;;;;;;;7.40;89.75;100651.91;5057536;28;20051;-72
2022/11/24 05:30:41;;;;;;;20.77;13.02;;;;;;;7.38;89.90;100633.34;5048169;28;20043;-72
2022/11/24 05:33:10;;;;;;;19.45;11.50;;;;;;;7.62;89.26;100650.19;5034082;28;20537;-72
2022/11/24 05:35:35;;;;;;;19.40;12.20;;;;;;;7.57;89.24;100648.03;5056441;28;20119;-72
2022/11/24 05:38:03;;;;;;;19.05;12.05;;;;;;;7.50;89.37;100655.97;5062377;28;20052;-72
2022/11/24 05:40:30;;;;;;;21.05;12.88;;;;;;;7.63;88.58;100659.88;5039593;28;20829;-72
2022/11/24 05:42:55;;;;;;;21.75;12.30;;;;;;;7.41;90.00;100665.09;5051026;28;20649;-72
2022/11/24 05:45:21;;;;;;;20.83;13.07;;;;;;;7.60;88.99;100663.75;5049625;28;20056;-72
2022/11/24 05:47:47;;;;;;;18.42;11.90;;;;;;;7.72;88.58;100662.28;5057674;28;20066;-72
2022/11/24 05:50:15;;;;;;;19.92;11.88;;;;;;;7.65;88.61;100663.19;5061659;28;20047;-72
2022/11/24 05:52:41;;;;;;;22.02;12.55;;;;;;;7.72;88.22;100664.97;5072018;28;20039;-72
2022/11/24 05:55:08;;;;;;;21.20;12.30;;;;;;;7.46;89.26;100670.75;5069047;28;20033;-72
2022/11/24 05:57:34;;;;;;;19.55;11.55;;;;;;;7.49;89.71;100653.50;5084708;28;20050;-72
2022/11/24 06:00:00;;;;;;;22.48;13.35;;;;;;;7.61;89.18;100673.44;5126071;28;20067;-73
2022/11/24 06:02:25;;;;;;;21.38;12.85;;;;;;;7.43;89.08;100644.34;5091649;28;20077;-73
2022/11/24 06:04:50;;;;;;;19.25;12.95;;;;;;;7.60;88.78;100670.94;5076230;28;20073;-72
2022/11/24 06:07:16;;;;;;;21.27;12.73;;;;;;;7.38;89.03;100651.25;5089230;28;20054;-72
2022/11/24 06:09:42;;;;;;;21.55;12.57;;;;;;;7.67;88.94;100677.22;5086445;28;20036;-72
2022/11/24 06:12:09;;;;;;;23.73;12.88;;;;;;;7.58;89.34;100681.81;5118490;28;20035;-72
2022/11/24 06:14:35;;;;;;;17.73;11.30;;;;;;;7.43;89.83;100686.34;5106695;28;20510;-72
2022/11/24 06:17:00;;;;;;;21.05;12.63;;;;;;;7.61;88.98;100677.97;5073200;28;20036;-72
2022/11/24 06:19:26;;;;;;;22.00;12.00;;;;;;;7.55;89.73;100690.25;5088629;28;20034;-73
2022/11/24 06:21:51;;;;;;;18.10;11.63;;;;;;;7.46;89.45;100684.13;5104362;28;20165;-72
2022/11/24 06:24:17;;;;;;;19.75;12.40;;;;;;;7.57;89.39;100679.34;5117042;28;20032;-72
2022/11/24 06:26:42;;;;;;;21.50;13.07;;;;;;;7.66;89.17;100678.25;5073050;28;20049;-72
2022/11/24 06:29:08;;;;;;;20.83;11.60;;;;;;;7.57;89.42;100688.22;5092021;28;20058;-72
2022/11/24 06:31:33;;;;;;;17.80;11.55;;;;;;;7.36;90.13;100667.50;5095922;28;20069;-72
2022/11/24 06:33:59;;;;;;;21.90;12.80;;;;;;;7.47;90.52;100683.13;5085864;28;20105;-72
2022/11/24 06:36:25;;;;;;;21.17;10.98;;;;;;;7.37;91.06;100685.22;5116850;28;20391;-72
2022/11/24 06:38:51;;;;;;;18.52;12.52;;;;;;;7.41;90.73;100704.41;5108535;28;20031;-72
2022/11/24 06:41:17;;;;;;;21.27;12.32;;;;;;;7.37;90.64;100679.88;5074161;28;20038;-71
2022/11/24 06:43:43;;;;;;;19.33;10.70;;;;;;;7.19;92.31;100690.06;5115577;28;20027;-72
2022/11/24 06:46:09;;;;;;;17.70;11.05;;;;;;;7.27;92.40;100693.50;5103652;28;20036;-72
2022/11/24 06:48:35;;;;;;;18.67;11.82;;;;;;;7.46;90.86;100694.84;5114377;28;20036;-72
2022/11/24 06:51:06;;;;;;;17.15;11.57;;;;;;;7.41;91.15;100694.53;5109604;28;20050;-72
2022/11/24 06:53:36;;;;;;;19.02;12.25;;;;;;;7.63;90.35;100697.38;5107012;28;20446;-72
2022/11/24 06:56:03;;;;;;;21.10;12.13;;;;;;;7.37;90.52;100695.09;5116700;28;20402;-72
2022/11/24 06:58:28;;;;;;;21.23;12.10;;;;;;;7.53;90.10;100694.94;5104597;28;20096;-72
2022/11/24 07:00:53;;;;;;;20.15;12.05;;;;;;;7.36;90.17;100686.25;5093560;28;20530;-72
2022/11/24 07:03:19;;;;;;;17.77;10.75;;;;;;;7.44;90.91;100709.41;5093861;28;20043;-73
2022/11/24 07:05:45;;;;;;;18.60;11.50;;;;;;;7.37;91.25;100706.63;5069645;28;20052;-72
2022/11/24 07:08:11;;;;;;;17.95;11.35;;;;;;;7.41;91.67;100726.66;5098221;28;20027;-71
2022/11/24 07:10:38;;;;;;;19.20;12.07;;;;;;;7.42;90.91;100698.91;5087128;28;20364;-72
2022/11/24 07:13:07;;;;;;;20.05;12.40;;;;;;;7.57;90.63;100727.53;5074778;28;20529;-72
2022/11/24 07:15:33;;;;;;;17.95;11.82;;;;;;;7.53;90.56;100725.22;5113689;28;20050;-72
2022/11/24 07:17:58;;;;;;;21.23;12.20;;;;;;;7.43;91.61;100727.31;5084976;28;20032;-72
2022/11/24 07:20:24;;;;;;;19.08;10.57;;;;;;;7.58;90.92;100718.50;5097213;28;20099;-72
2022/11/24 07:22:54;;;;;;;20.02;11.48;;;;;;;7.72;89.67;100729.25;5088176;28;20027;-72
2022/11/24 07:25:20;;;;;;;19.77;11.77;;;;;;;7.30;91.13;100709.19;5072763;28;20091;-72
2022/11/24 07:27:45;;;;;;;18.60;11.77;;;;;;;7.60;90.82;100737.91;5097243;28;20039;-72
2022/11/24 07:30:11;;;;;;;18.70;11.70;;;;;;;7.66;89.92;100729.13;5084780;28;20035;-72
2022/11/24 07:32:36;;;;;;;20.42;12.18;;;;;;;7.76;89.51;100741.25;5078631;28;20028;-72
2022/11/24 07:35:02;;;;;;;21.35;12.45;;;;;;;7.63;90.14;100724.97;5108802;28;20447;-73
2022/11/24 07:37:27;;;;;;;22.13;12.68;;;;;;;7.54;91.50;100742.94;5088384;28;20031;-72
2022/11/24 07:39:52;;;;;;;19.85;12.27;;;;;;;7.60;91.59;100748.59;5097359;28;20127;-72
2022/11/24 07:42:18;;;;;;;22.80;12.60;;;;;;;7.59;91.93;100754.97;5089194;28;20101;-74
2022/11/24 07:44:43;;;;;;;22.48;13.00;;;;;;;7.61;91.90;100755.63;5104770;28;20036;-73
2022/11/24 07:47:09;;;;;;;18.60;12.63;;;;;;;7.56;91.79;100756.16;5095794;28;20111;-71
2022/11/24 07:49:34;;;;;;;18.70;12.80;;;;;;;7.45;91.40;100733.34;5100689;28;20390;-72
2022/11/24 07:52:00;;;;;;;20.88;12.70;;;;;;;7.38;92.25;100743.09;5075896;28;20028;-72
2022/11/24 07:54:25;;;;;;;20.67;12.80;;;;;;;7.55;90.73;100749.16;5052446;28;20050;-72
2022/11/24 07:56:50;;;;;;;22.38;12.43;;;;;;;7.74;90.61;100764.69;5110357;28;20036;-72
2022/11/24 07:59:16;;;;;;;19.92;12.98;;;;;;;7.50;91.32;100738.16;5110816;28;20106;-72
2022/11/24 08:01:41;;;;;;;21.30;13.27;;;;;;;7.34;92.32;100744.47;5104371;28;20036;-72
2022/11/24 08:04:06;;;;;;;24.10;13.43;;;;;;;7.81;90.96;100782.72;5063641;28;20063;-72
2022/11/24 08:06:32;;;;;;;24.52;12.57;;;;;;;7.35;92.14;100751.50;5081978;28;20436;-72
2022/11/24 08:08:59;;;;;;;21.60;13.32;;;;;;;7.42;92.57;100759.66;5089176;28;20060;-72
2022/11/24 08:11:25;;;;;;;19.38;13.02;;;;;;;7.42;93.59;100767.69;5090252;28;20024;-72
2022/11/24 08:13:51;;;;;;;21.25;13.57;;;;;;;7.52;92.91;100776.28;5080842;28;20039;-73
2022/11/24 08:16:18;;;;;;;21.52;13.30;;;;;;;7.79;91.94;100782.91;5093682;28;20032;-72
2022/11/24 08:18:49;;;;;;;19.35;12.25;;;;;;;7.76;91.88;100778.75;5084265;28;20113;-72
2022/11/24 08:21:15;;;;;;;20.05;11.80;;;;;;;7.76;91.71;100784.09;5085940;28;20033;-72
2022/11/24 08:23:40;;;;;;;20.15;11.90;;;;;;;7.60;92.76;100780.75;5091744;28;20042;-72
2022/11/24 08:26:12;;;;;;;20.60;11.95;;;;;;;7.77;92.27;100788.44;5063739;28;20482;-72
2022/11/24 08:28:37;;;;;;;20.58;11.25;;;;;;;7.60;91.99;100786.09;5074334;28;20036;-71
2022/11/24 08:31:05;;;;;;;18.85;12.65;;;;;;;7.70;91.69;100765.25;5086908;28;20042;-71
2022/11/24 08:33:31;;;;;;;19.75;11.80;;;;;;;7.87;91.27;100800.75;5085698;28;20028;-70
2022/11/24 08:36:04;;;;;;;20.40;12.38;;;;;;;7.83;91.68;100800.28;5095022;28;20032;-70
2022/11/24 08:38:30;;;;;;;18.45;11.57;;;;;;;7.73;91.77;100789.00;5082080;28;20119;-71
2022/11/24 08:41:00;;;;;;;21.02;12.70;;;;;;;7.94;91.08;100813.22;5090541;28;20101;-71
2022/11/24 08:43:26;;;;;;;21.35;12.25;;;;;;;7.72;92.12;100814.13;5091188;28;20119;-71
2022/11/24 08:45:51;;;;;;;18.73;12.07;;;;;;;7.91;91.44;100819.00;5082592;28;20502;-70
2022/11/24 08:48:17;;;;;;;20.80;12.45;;;;;;;7.83;91.52;100811.00;5093527;28;20033;-70
2022/11/24 08:50:42;;;;;;;19.95;12.30;;;;;;;7.82;92.18;100813.88;5066593;28;20034;-71
2022/11/24 08:53:10;;;;;;;19.95;12.55;;;;;;;7.81;91.20;100790.75;5088671;28;20394;-70
2022/11/24 08:55:35;;;;;;;20.00;12.10;;;;;;;8.04;90.95;100815.66;5091041;28;20036;-71
2022/11/24 08:58:00;;;;;;;20.40;12.68;;;;;;;8.08;90.86;100825.03;5081556;28;20119;-72
2022/11/24 09:00:26;;;;;;;20.17;13.02;;;;;;;7.97;91.04;100820.91;5092738;28;20025;-71
2022/11/24 09:02:56;;;;;;;19.17;12.52;;;;;;;7.91;90.80;100820.81;5084879;28;20032;-71
2022/11/24 09:05:21;;;;;;;22.55;11.63;;;;;;;7.69;91.38;100814.47;5092761;28;20165;-71
2022/11/24 09:07:47;;;;;;;23.40;13.30;;;;;;;7.88;91.74;100830.06;5114960;28;20114;-71
2022/11/24 09:10:15;;;;;;;21.10;13.65;;;;;;;8.13;90.65;100827.13;5084270;28;20028;-71
2022/11/24 09:12:43;;;;;;;23.45;14.13;;;;;;;8.07;90.94;100841.25;5094766;28;20030;-72
2022/11/24 09:15:15;;;;;;;21.67;13.48;;;;;;;7.89;90.53;100822.84;5091230;28;20028;-71
2022/11/24 09:17:40;;;;;;;23.15;14.70;;;;;;;7.89;91.35;100846.97;5086463;28;20044;-73
2022/11/24 09:20:06;;;;;;;22.35;13.65;;;;;;;7.83;91.32;100816.38;5098068;28;20096;-72
2022/11/24 09:22:31;;;;;;;24.77;14.68;;;;;;;8.00;90.57;100833.13;5103620;28;20024;-72
2022/11/24 09:24:57;;;;;;;22.13;14.18;;;;;;;8.13;90.24;100849.41;5092062;28;20016;-71
2022/11/24 09:27:22;;;;;;;26.40;14.48;;;;;;;8.20;89.57;100852.19;5110839;28;20036;-71
2022/11/24 09:29:48;;;;;;;23.13;13.80;;;;;;;8.21;89.37;100852.03;5084324;28;20356;-72
2022/11/24 09:32:13;;;;;;;26.63;15.13;;;;;;;8.03;89.82;100819.38;5080103;28;20046;-72
2022/11/24 09:34:38;;;;;;;27.48;12.90;;;;;;;8.13;90.27;100844.06;5063183;28;20028;-70
2022/11/24 09:37:04;;;;;;;24.52;14.88;;;;;;;7.61;92.30;100831.44;5088899;28;20032;-70
2022/11/24 09:39:29;;;;;;;21.65;13.40;;;;;;;7.90;91.16;100837.91;5071844;28;20048;-71
2022/11/24 09:42:14;;;;;;;26.23;14.30;;;;;;;7.86;91.95;100847.31;5114066;28;20035;-71
2022/11/24 09:45:05;;;;;;;27.73;14.45;;;;;;;8.20;90.56;100852.19;5085605;28;20442;-71
2022/11/24 09:48:01;;;;;;;27.67;14.90;;;;;;;8.37;89.43;100858.22;5107594;28;20028;-72
2022/11/24 09:50:49;;;;;;;23.25;13.88;;;;;;;8.37;89.35;100859.06;5072393;28;20083;-71
2022/11/24 09:53:26;;;;;;;24.73;14.50;;;;;;;8.32;89.34;100863.31;5068484;28;20132;-72
2022/11/24 09:56:01;;;;;;;23.48;13.75;;;;;;;7.99;90.89;100850.22;5057866;28;20047;-72
2022/11/24 09:58:33;;;;;;;22.25;13.98;;;;;;;8.33;89.91;100865.81;5075570;28;20095;-72
2022/11/24 10:00:59;;;;;;;21.55;13.07;;;;;;;8.15;90.67;100859.97;5050979;28;20066;-73
2022/11/24 10:03:38;;;;;;;22.08;13.32;;;;;;;8.27;90.39;100863.84;5050378;28;20049;-72
2022/11/24 10:06:16;;;;;;;21.95;13.27;;;;;;;8.43;89.28;100865.56;5075651;28;20076;-73
2022/11/24 10:09:02;;;;;;;19.67;12.23;;;;;;;8.48;89.50;100865.88;5048560;28;20043;-72
2022/11/24 10:11:38;;;;;;;20.48;12.38;;;;;;;8.41;89.85;100865.78;5050242;28;20388;-72
2022/11/24 10:14:23;;;;;;;20.65;12.73;;;;;;;8.30;89.64;100854.63;5058653;28;20060;-72
2022/11/24 10:17:31;;;;;;;22.75;12.50;;;;;;;8.34;89.45;100866.63;5049265;28;20538;-72
2022/11/24 10:20:32;;;;;;;22.17;12.95;;;;;;;8.53;89.39;100860.78;5048632;28;20127;-72
2022/11/24 10:23:00;;;;;;;22.70;13.20;;;;;;;8.65;88.58;100861.97;5024706;28;20033;-72
2022/11/24 10:25:41;;;;;;;22.50;12.80;;;;;;;8.45;88.50;100856.34;5113538;28;20039;-72
2022/11/24 10:28:12;;;;;;;21.88;13.02;;;;;;;8.46;89.20;100865.22;5105224;28;20032;-72
2022/11/24 10:30:37;;;;;;;22.05;12.55;;;;;;;8.41;89.01;100868.44;5098380;28;20031;-74
2022/11/24 10:33:13;;;;;;;21.88;11.98;;;;;;;8.46;88.66;100865.22;5075121;28;20040;-71
2022/11/24 10:35:50;;;;;;;19.83;12.45;;;;;;;8.49;89.63;100870.22;5089572;28;20094;-72
2022/11/24 10:38:18;;;;;;;20.38;12.68;;;;;;;8.58;89.17;100863.75;5099596;28;20043;-73
2022/11/24 10:41:07;;;;;;;19.10;13.10;;;;;;;8.64;87.88;100870.19;5107921;28;20031;-72
2022/11/24 10:43:33;;;;;;;19.27;12.75;;;;;;;8.76;88.00;100859.84;5090447;28;20024;-74
2022/11/24 10:46:08;;;;;;;21.70;12.77;;;;;;;8.68;88.35;100871.50;5118027;28;20058;-72
2022/11/24 10:48:52;;;;;;;21.23;11.32;;;;;;;8.53;89.28;100865.31;5106253;28;20130;-72
2022/11/24 10:51:39;;;;;;;19.35;11.25;;;;;;;8.38;88.91;100858.09;5092184;28;20052;-70
2022/11/24 10:54:17;;;;;;;21.83;12.93;;;;;;;8.16;90.58;100866.97;5118433;28;20038;-74
2022/11/24 10:56:45;;;;;;;22.23;12.52;;;;;;;8.27;90.77;100863.84;5108681;28;20050;-72
2022/11/24 10:59:22;;;;;;;21.48;11.77;;;;;;;8.62;89.54;100874.94;5091889;28;20024;-75
2022/11/24 11:01:49;;;;;;;22.08;12.02;;;;;;;8.60;88.90;100871.59;5081924;28;20088;-72
2022/11/24 11:04:21;;;;;;;21.25;11.85;;;;;;;8.11;88.44;100788.97;5096158;28;20120;-71
2022/11/24 11:06:46;;;;;;;18.67;10.88;;;;;;;8.59;88.99;100856.53;5106814;28;20054;-71
2022/11/24 11:09:20;;;;;;;22.48;11.95;;;;;;;8.67;88.58;100875.19;5110362;28;20032;-71
2022/11/24 11:11:47;;;;;;;18.58;10.82;;;;;;;8.70;88.17;100864.94;5115367;28;20035;-72
2022/11/24 11:14:34;;;;;;;18.40;11.25;;;;;;;8.60;89.17;100871.59;5086377;28;20036;-71
2022/11/24 11:17:00;;;;;;;20.27;11.27;;;;;;;8.66;88.02;100874.38;5051539;28;20052;-71
2022/11/24 11:19:34;;;;;;;18.38;11.20;;;;;;;8.58;88.86;100873.66;5069452;28;20049;-71
2022/11/24 11:22:30;;;;;;;18.08;10.98;;;;;;;8.84;88.19;100870.47;5060403;28;20055;-70
2022/11/24 11:25:15;;;;;;;20.85;11.70;;;;;;;8.80;87.75;100870.00;5047892;28;20511;-71
2022/11/24 11:27:41;;;;;;;21.60;11.10;;;;;;;8.67;88.51;100877.88;5053560;28;20062;-70